Portada
METAR-TAF:

METAR-TAF

Aeropuertos :

Keokuk Municipal Airport

Keokuk, Iowa, Estados Unidos

latitud: 40-28N, longitud: 091-26W, altitud: 205 m

Observación

El informe se hizo hace 52 minutos, a las 20:35 UTC
Viento 5 kt del norte
Temperatura 31°C
Humedad 55%
Presión 1021 hPa
Visibilidad: 16.1 km
Escasas nubes a una altura de 3600 ft
Cielo nuboso a una altura de 4500 ft
Cielo nuboso a una altura de 5500 ft

METAR: KEOK 192035Z AUTO 01005KT 10SM FEW036 BKN045 BKN055 31/21 A3016 RMK A01

Hora: 16:27 (21:27 UTC)


TAF: falta

Observaciones y pronósticos meteorológicos de más de 4000 aeropuertos (mensajes METAR y TAF).

Los puntos amarillos y rojos representan las estaciones disponibles.

Ponga el ratón en el punto deseado para ver el nombre de la estación.

Haga clic para ver las observaciones y los pronósticos meteorológicos.

Para cambiar el mapa : haga clic en los botones verdes con una cruz de color negro para hacer un zoom, en el botón verde con un guión para alejar o en las flechas verdes para mapas adyacentes.


METAR-TAF: